MST,Max TemperatureF,Mean TemperatureF,Min TemperatureF,Max Dew PointF,MeanDew PointF,Min DewpointF,Max Humidity, Mean Humidity, Min Humidity, Max Sea Level PressureIn, Mean Sea Level PressureIn, Min Sea Level PressureIn, Max VisibilityMiles, Mean VisibilityMiles, Min VisibilityMiles, Max Wind SpeedMPH, Mean Wind SpeedMPH, Max Gust SpeedMPH,PrecipitationIn, CloudCover, Events, WindDirDegrees
2011-11-1,51,41,30,31,29,27,100,71,42,30.15,30.01,29.87,10,7,1,32,13,43,0.05,3,Snow,29
2011-11-2,31,23,15,28,25,13,100,82,63,30.56,30.36,30.13,10,4,0,28,20,32,0.08,6,Fog-Snow,353
2011-11-3,45,31,16,27,20,9,85,65,45,30.52,30.28,30.01,10,10,10,23,12,29,0.00,0,,182
2011-11-4,59,40,21,35,26,19,92,64,36,29.99,29.85,29.60,10,7,2,25,10,33,0.00,0,,199
2011-11-5,62,47,31,37,31,17,76,54,32,29.58,29.35,29.13,10,9,2,45,19,53,0.13,3,Rain-Thunderstorm,217
2011-11-6,51,36,21,25,19,13,77,53,28,30.03,29.89,29.63,10,10,10,22,9,26,0.00,1,,260
2011-11-7,42,36,30,31,27,19,89,71,52,30.13,30.07,30.00,10,10,9,16,7,22,T,7,,110
2011-11-8,45,36,26,32,28,18,96,75,53,30.37,30.13,30.02,10,7,1,14,6,17,0.00,6,,10
2011-11-9,45,33,20,23,16,11,84,55,25,30.53,30.46,30.39,10,10,10,23,12,28,0.00,0,,290
2011-11-10,59,42,24,18,12,1,68,39,10,30.38,30.18,29.96,10,10,10,17,11,21,0.00,0,,236
2011-11-11,64,46,27,20,10,-2,48,28,7,29.99,29.79,29.56,10,10,10,16,9,20,0.00,0,,212
2011-11-12,66,49,32,27,19,12,64,40,16,29.57,29.48,29.38,10,10,10,29,14,35,0.00,0,,265
2011-11-13,56,42,28,25,18,11,69,49,28,29.69,29.55,29.42,10,10,10,28,11,35,0.00,2,,57
2011-11-14,57,41,24,22,15,4,75,44,12,29.80,29.70,29.60,10,10,10,33,13,40,0.00,0,,251
2011-11-15,52,39,25,20,17,12,69,45,21,30.06,29.90,29.68,10,10,8,36,14,44,T,4,Snow,17
2011-11-16,35,25,14,19,11,0,84,55,25,30.44,30.28,30.08,10,10,10,26,9,32,0.00,3,,312
2011-11-17,60,43,25,16,12,1,63,37,10,30.27,29.96,29.67,10,10,10,22,13,26,0.00,0,,217
2011-11-18,64,44,23,19,13,8,74,43,11,29.68,29.54,29.38,10,10,10,17,9,21,0.00,0,,213
2011-11-19,37,27,17,24,21,16,92,73,54,30.15,29.83,29.44,10,10,9,22,10,26,0.00,4,,9
2011-11-20,40,27,13,22,18,11,92,66,40,30.21,30.14,30.07,10,10,9,25,12,30,0.00,2,,157
2011-11-21,52,37,21,25,21,18,92,62,32,30.15,30.07,29.95,10,10,10,16,8,17,0.00,0,,269
2011-11-22,55,41,26,25,22,19,81,53,24,30.19,30.13,30.07,10,10,10,16,11,18,0.00,0,,260
2011-11-23,68,50,32,21,18,14,56,35,13,30.23,30.09,29.91,10,10,10,22,11,26,0.00,0,,209
2011-11-24,68,52,36,18,13,5,37,23,9,29.92,29.84,29.70,10,10,10,,,,0.00,0,,-1
2011-11-25,56,44,31,26,20,13,69,46,23,30.08,29.78,29.65,10,10,10,43,14,54,T,4,Rain,292
2011-11-26,37,27,17,21,13,4,69,48,26,30.61,30.37,30.10,10,8,1,46,31,53,T,3,Snow,333
2011-11-27,54,35,15,12,10,7,67,43,18,30.55,30.35,30.12,10,10,10,20,12,22,0.00,0,,262
2011-11-28,63,47,30,24,17,13,64,39,14,30.38,30.18,30.07,10,10,10,37,15,44,0.00,0,,321
2011-11-29,54,42,30,24,23,21,78,54,29,30.39,30.26,30.04,10,10,10,20,6,24,0.00,2,,191
2011-11-30,58,42,26,23,20,15,81,50,19,30.07,29.88,29.71,10,10,10,17,12,22,0.00,0,,333